KPBI/PBI METAR and TAF weather

Enter ICAO airport designator
Station Type Date Time Source
KPBI METAR 2022/01/27 22:53 UTC NOAA

KPBI 272253Z 02007KT 10SM FEW021 SCT055 SCT250 22/18 A3002 RMK AO2 SLP165 T02220183


Station Type Date Time Source
KPBI Decoded METAR 2022/01/27 22:53 UTC NOAA

PALM BEACH INTERNATIONAL, FL, United States (KPBI) 26-41N 80-06W 6M
Jan 27, 2022 - 05:53 PM EST / 2022.01.27 2253 UTC
Wind: from the NNE (020 degrees) at 8 MPH (7 KT):0
Visibility: 10 mile(s):0
Sky conditions: partly cloudy
Temperature: 72.0 F (22.2 C)
Dew Point: 64.9 F (18.3 C)
Relative Humidity: 78%
Pressure (altimeter): 30.02 in. Hg (1016 hPa)
ob: KPBI 272253Z 02007KT 10SM FEW021 SCT055 SCT250 22/18 A3002 RMK AO2 SLP165 T02220183
cycle: 23

Station Type Date Time Source
KPBI TAF 2022/01/27 21:44 UTC NOAA

TAF
AMD KPBI 272041Z 2721/2818 03008KT P6SM SCT025 BKN050
FM280000 VRB03KT P6SM SCT015 BKN050
FM281400 29010KT P6SM SCT025 BKN050

Example: see airport list